Weather reports worldwide

Advertisment
Passo Rolle, Italy (16021): temperature & dewpoint: 12.10.2018 03:00:00 - 18.10.2018 03:00:00 (CEST)Passo Rolle, Italy (16021): wind speed: 12.10.2018 03:00:00 - 18.10.2018 03:00:00 (CEST)Passo Rolle, Italy (16021): wind direction: 12.10.2018 03:00:00 - 18.10.2018 03:00:00 (CEST)Passo Rolle, Italy (16021): visibility: 12.10.2018 03:00:00 - 18.10.2018 03:00:00 (CEST)
Date & Time tt [°C] td [°C] ff [km/h] ff [kn] dd vv [km]
18.10.2018 03:00:00 - - - - - -
18.10.2018 02:00:00 - - - - - -
18.10.2018 01:00:00 - - - - - -
18.10.2018 00:00:00 - - - - - -
17.10.2018 23:00:00 - - - - - -
17.10.2018 22:00:00 - - - - - -
17.10.2018 21:00:00 - - - - - -
17.10.2018 20:00:00 - - - - - -
17.10.2018 19:00:00 - - - - - -
17.10.2018 18:00:00 - - - - - -
17.10.2018 17:00:00 - - - - - -
17.10.2018 16:00:00 - - - - - -
17.10.2018 15:00:00 - - - - - -
17.10.2018 14:00:00 - - - - - -
17.10.2018 13:00:00 - - - - - -
17.10.2018 12:00:00 - - - - - -
17.10.2018 11:00:00 - - - - - -
17.10.2018 10:00:00 - - - - - -
17.10.2018 09:00:00 - - - - - -
17.10.2018 08:00:00 - - - - - -
17.10.2018 07:00:00 5,0 -1,0 0 0 N 10
17.10.2018 06:00:00 5,0 -1,0 0 0 N 10
17.10.2018 05:00:00 5,0 -0,8 0 0 N 12
17.10.2018 04:00:00 - - - - - -
17.10.2018 03:00:00 - - - - - -
17.10.2018 02:00:00 4,8 2,3 0 0 N 12
17.10.2018 01:00:00 - - - - - -
17.10.2018 00:00:00 - - - - - -
16.10.2018 23:00:00 4,4 2,6 8 4 ESE 12
16.10.2018 22:00:00 - - - - - -
16.10.2018 21:00:00 - - - - - -
16.10.2018 20:00:00 4,8 3,0 9 5 ESE 12
16.10.2018 19:00:00 5,0 3,0 9 5 ESE 10
16.10.2018 18:00:00 6,0 4,0 16 9 ESE 10
16.10.2018 17:00:00 7,2 2,5 13 7 ESE 30
16.10.2018 16:00:00 7,0 1,0 13 7 ESE 10
16.10.2018 15:00:00 7,0 2,0 15 8 SE 10
16.10.2018 14:00:00 7,6 1,7 9 5 SE 30
16.10.2018 13:00:00 7,0 1,0 11 6 ESE 10
16.10.2018 12:00:00 6,0 1,0 13 7 ESE 10
16.10.2018 11:00:00 6,8 1,7 13 7 SE 30
16.10.2018 10:00:00 - - - - - -
16.10.2018 09:00:00 4,0 -1,0 0 0 N 10
16.10.2018 08:00:00 3,8 -0,8 0 0 N 30
16.10.2018 07:00:00 4,0 -1,0 0 0 N 10
16.10.2018 06:00:00 3,0 -1,0 4 2 E 10
16.10.2018 05:00:00 3,2 -0,3 0 0 N 10
16.10.2018 04:00:00 - - - - - -
16.10.2018 03:00:00 - - - - - -
16.10.2018 02:00:00 3,0 1,2 13 7 ESE 10
16.10.2018 01:00:00 - - - - - -
16.10.2018 00:00:00 - - - - - -
15.10.2018 23:00:00 3,8 2,3 13 7 ESE 0,8
15.10.2018 22:00:00 - - - - - -
15.10.2018 21:00:00 - - - - - -
15.10.2018 20:00:00 4,2 3,6 16 9 SE 0,3
15.10.2018 19:00:00 5,0 4,0 18 10 SE 0,8
15.10.2018 18:00:00 6,0 4,0 18 10 SE 10
15.10.2018 17:00:00 5,2 3,4 21 11 SSE 20
15.10.2018 16:00:00 6,0 4,0 18 10 SE 10
15.10.2018 15:00:00 6,0 4,0 18 10 SE 10
15.10.2018 14:00:00 6,6 4,3 13 7 SE 20
15.10.2018 13:00:00 6,0 4,0 18 10 ESE 10
15.10.2018 12:00:00 6,0 4,0 16 9 ESE 10
15.10.2018 11:00:00 5,4 2,9 11 6 ESE 20
15.10.2018 10:00:00 5,0 3,0 15 8 SE 10
15.10.2018 09:00:00 - - - - - -
15.10.2018 08:00:00 5,2 2,0 4 2 E 15
15.10.2018 07:00:00 5,0 2,0 4 2 SSE 10
15.10.2018 06:00:00 5,0 2,0 4 2 NE 10
15.10.2018 05:00:00 5,2 2,0 4 2 ESE 10
15.10.2018 04:00:00 - - - - - -
15.10.2018 03:00:00 - - - - - -
15.10.2018 02:00:00 5,2 3,7 5 3 ESE 10
15.10.2018 01:00:00 - - - - - -
15.10.2018 00:00:00 - - - - - -
14.10.2018 23:00:00 5,6 3,4 8 4 ESE 10
14.10.2018 22:00:00 - - - - - -
14.10.2018 21:00:00 - - - - - -
14.10.2018 20:00:00 6,4 2,5 8 4 SE 10
14.10.2018 19:00:00 7,0 1,0 9 5 SE 10
14.10.2018 18:00:00 8,0 1,0 9 5 S 10
14.10.2018 17:00:00 8,2 0,0 9 5 SE 40
14.10.2018 16:00:00 9,0 -1,0 21 11 SE 10
14.10.2018 15:00:00 9,0 -2,0 26 14 SE 10
14.10.2018 14:00:00 9,2 -1,8 21 11 SE 75
14.10.2018 13:00:00 9,0 -4,0 16 9 SE 10
14.10.2018 12:00:00 9,0 -5,0 18 10 ESE 10
14.10.2018 11:00:00 8,2 -3,3 15 8 ESE 75
14.10.2018 10:00:00 7,0 -4,0 11 6 E 10
14.10.2018 09:00:00 5,0 -4,0 5 3 E 10
14.10.2018 08:00:00 5,0 -1,9 5 3 E 75
14.10.2018 07:00:00 5,0 -2,0 4 2 E 10
14.10.2018 06:00:00 6,0 -3,0 5 3 ESE 10
14.10.2018 05:00:00 6,0 -3,6 8 4 E 15
14.10.2018 04:00:00 - - - - - -
14.10.2018 03:00:00 - - - - - -
14.10.2018 02:00:00 6,0 -5,0 4 2 E 15
14.10.2018 01:00:00 - - - - - -
14.10.2018 00:00:00 - - - - - -
13.10.2018 23:00:00 6,4 -1,5 5 3 E 15
13.10.2018 22:00:00 - - - - - -
13.10.2018 21:00:00 - - - - - -
13.10.2018 20:00:00 6,6 2,7 8 4 E 15
13.10.2018 19:00:00 7,0 4,0 9 5 SE 10
13.10.2018 18:00:00 9,0 4,0 18 10 SE 10
13.10.2018 17:00:00 10,4 -1,6 18 10 SE 75
13.10.2018 16:00:00 11,0 -2,0 18 10 SE 10
13.10.2018 15:00:00 11,0 -1,0 21 11 ESE 10
13.10.2018 14:00:00 12,0 -1,2 16 9 SE 75
13.10.2018 13:00:00 11,0 -1,0 13 7 SE 10
13.10.2018 12:00:00 11,0 2,0 11 6 SE 10
13.10.2018 11:00:00 10,0 2,6 11 6 ESE 75
13.10.2018 10:00:00 9,0 4,0 13 7 SE 10
13.10.2018 09:00:00 7,0 3,0 2 1 SE 10
13.10.2018 08:00:00 6,8 3,6 4 2 NW 75
13.10.2018 07:00:00 7,0 4,0 2 1 NNW 10
13.10.2018 06:00:00 - - - - - -
13.10.2018 05:00:00 7,0 5,8 5 3 N 15
13.10.2018 04:00:00 - - - - - -
13.10.2018 03:00:00 - - - - - -
13.10.2018 02:00:00 7,2 4,0 8 4 N 15
13.10.2018 01:00:00 - - - - - -
13.10.2018 00:00:00 - - - - - -
12.10.2018 23:00:00 7,6 3,5 4 2 E 15
12.10.2018 22:00:00 - - - - - -
12.10.2018 21:00:00 - - - - - -
12.10.2018 20:00:00 8,6 2,0 8 4 ESE 15
12.10.2018 19:00:00 9,0 2,0 5 3 E 10
12.10.2018 18:00:00 11,0 3,0 9 5 SE 10
12.10.2018 17:00:00 11,0 2,3 9 5 SE 50
12.10.2018 16:00:00 12,0 2,0 15 8 SE 10
12.10.2018 15:00:00 12,0 2,0 13 7 SE 10
12.10.2018 14:00:00 12,2 2,1 13 7 SE 50
12.10.2018 13:00:00 10,0 0,0 4 2 SSW 10
12.10.2018 12:00:00 10,0 2,0 8 4 WNW 10
12.10.2018 11:00:00 8,4 2,2 8 4 W 80
12.10.2018 10:00:00 7,0 3,0 4 2 NW 10
12.10.2018 09:00:00 6,0 2,0 8 4 NNE 10
12.10.2018 08:00:00 5,8 1,7 9 5 WNW 75
12.10.2018 07:00:00 6,0 2,0 13 7 NNE 10
12.10.2018 06:00:00 6,0 1,0 8 4 N 10
12.10.2018 05:00:00 6,4 -0,8 5 3 N 12
12.10.2018 04:00:00 - - - - - -
12.10.2018 03:00:00 - - - - - -

tt = temperature
td = dewpoint
ff = wind speed
dd = wind direction
vv = visibility

Next stations